createdAt,value
2019-05-07T00:18:38.383Z,70.65
2019-05-07T00:21:25.319Z,70.89
2019-05-07T00:24:13.545Z,69.60
2019-05-07T00:27:14.818Z,69.17
2019-05-07T00:30:02.866Z,70.75
2019-05-07T00:36:02.650Z,71.70
2019-05-07T00:38:51.962Z,71.54
2019-05-07T00:48:12.513Z,71.84
2019-05-07T00:54:18.487Z,72.25
2019-05-07T01:00:13.097Z,71.79
2019-05-07T01:12:18.608Z,69.16
2019-05-07T01:27:37.095Z,70.25
2019-05-07T01:30:23.963Z,68.83
2019-05-07T01:33:13.587Z,68.07
2019-05-07T01:42:18.040Z,70.47
2019-05-07T01:45:05.725Z,70.85
2019-05-07T01:50:58.593Z,70.70
2019-05-07T01:53:59.483Z,70.96
2019-05-07T02:06:25.776Z,70.77
2019-05-07T02:37:37.624Z,70.79
2019-05-07T02:40:18.261Z,71.97
2019-05-07T03:21:12.697Z,68.84
2019-05-07T03:24:08.411Z,70.55
2019-05-07T03:26:58.088Z,71.10
2019-05-07T03:55:14.460Z,70.79
2019-05-07T03:58:03.190Z,72.13
2019-05-07T04:00:48.721Z,72.64
2019-05-07T04:06:43.412Z,71.16
2019-05-07T04:09:28.833Z,72.24
2019-05-07T04:12:16.379Z,72.64
2019-05-07T04:27:34.765Z,72.64
2019-05-07T04:30:23.515Z,72.08
2019-05-07T04:33:13.057Z,71.22
2019-05-07T04:36:04.881Z,68.89
2019-05-07T04:54:25.355Z,69.57
2019-05-07T04:57:27.313Z,69.80
2019-05-07T05:00:28.478Z,70.16
2019-05-07T05:03:15.559Z,71.07
2019-05-07T05:15:35.564Z,74.84
2019-05-07T05:18:22.502Z,73.54
2019-05-07T05:24:33.142Z,76.76
2019-05-07T05:27:30.106Z,75.47
2019-05-07T05:30:21.990Z,74.69
2019-05-07T05:33:08.020Z,74.62
2019-05-07T05:35:55.389Z,76.60
2019-05-07T06:20:13.863Z,77.50
2019-05-07T06:26:16.316Z,75.30
2019-05-07T06:29:03.393Z,75.99
2019-05-07T06:31:52.829Z,76.26
2019-05-07T06:50:22.565Z,75.07
2019-05-07T06:53:11.499Z,74.67
2019-05-07T06:55:56.483Z,74.46
2019-05-07T06:58:46.613Z,74.40
2019-05-07T07:08:09.946Z,70.45
2019-05-07T07:11:15.595Z,71.88
2019-05-07T07:14:02.704Z,71.51
2019-05-07T07:16:52.659Z,71.48
2019-05-07T07:26:03.491Z,66.18
2019-05-07T07:28:52.500Z,68.06
2019-05-07T07:31:38.494Z,67.72
2019-05-07T07:34:25.657Z,66.89
2019-05-07T07:37:25.044Z,65.67
2019-05-07T07:40:12.934Z,64.80
2019-05-07T07:42:59.313Z,64.39
2019-05-07T07:46:02.192Z,64.25
2019-05-07T07:51:54.962Z,63.73
2019-05-07T07:54:42.981Z,62.50
2019-05-07T08:00:52.258Z,60.72
2019-05-07T08:03:37.640Z,55.17
2019-05-07T08:06:24.432Z,54.31
2019-05-07T08:09:12.994Z,57.03
2019-05-07T08:11:58.678Z,58.14
2019-05-07T08:14:45.630Z,58.66
2019-05-07T08:17:35.487Z,59.10
2019-05-07T08:20:22.975Z,57.65
2019-05-07T08:23:12.058Z,58.20
2019-05-07T08:25:56.890Z,56.81
2019-05-07T08:28:44.262Z,55.73
2019-05-07T08:31:42.470Z,55.11
2019-05-07T08:34:37.085Z,49.43
2019-05-07T08:37:24.540Z,53.55
2019-05-07T08:40:12.715Z,53.71
2019-05-07T08:42:59.123Z,53.55
2019-05-07T08:45:49.138Z,53.15
2019-05-07T08:48:36.425Z,53.62
2019-05-07T08:51:23.147Z,52.82
2019-05-07T08:54:17.038Z,53.66
2019-05-07T08:57:04.050Z,54.07
2019-05-07T09:00:00.319Z,54.36
2019-05-07T09:02:52.824Z,49.88
2019-05-07T09:05:42.580Z,52.25
2019-05-07T09:08:28.026Z,48.01
2019-05-07T09:11:29.347Z,51.56
2019-05-07T09:14:16.329Z,53.00
2019-05-07T09:17:03.436Z,52.31
2019-05-07T09:19:54.057Z,51.47
2019-05-07T09:22:51.872Z,47.56
2019-05-07T09:25:38.454Z,43.01
2019-05-07T09:28:25.794Z,45.78
2019-05-07T09:31:13.220Z,47.71
2019-05-07T09:34:07.522Z,48.93
2019-05-07T09:36:54.192Z,46.29
2019-05-07T09:39:42.750Z,46.37
2019-05-07T09:42:28.596Z,45.77
2019-05-07T09:45:15.737Z,45.50
2019-05-07T09:48:03.055Z,43.62
2019-05-07T09:50:49.891Z,42.14
2019-05-07T09:53:36.961Z,43.84
2019-05-07T09:56:23.614Z,42.75
2019-05-07T09:59:12.526Z,43.71
2019-05-07T10:01:57.335Z,44.59
2019-05-07T10:04:44.482Z,38.05
2019-05-07T10:07:32.487Z,42.01
2019-05-07T10:10:18.632Z,41.74
2019-05-07T10:13:08.204Z,43.57
2019-05-07T10:15:55.293Z,43.69
2019-05-07T10:18:43.318Z,44.94
2019-05-07T10:21:30.544Z,43.74
2019-05-07T10:24:17.566Z,42.52
2019-05-07T10:27:04.624Z,41.05
2019-05-07T10:29:53.026Z,41.48
2019-05-07T10:32:38.754Z,41.99
2019-05-07T10:38:32.246Z,42.58
2019-05-07T10:41:19.323Z,43.08
2019-05-07T10:44:06.578Z,41.64
2019-05-07T10:47:12.154Z,41.38
2019-05-07T10:50:17.342Z,40.77
2019-05-07T10:53:04.561Z,35.72
2019-05-07T11:02:04.022Z,38.86
2019-05-07T11:04:53.151Z,33.31
2019-05-07T11:07:37.936Z,34.15
2019-05-07T11:10:24.979Z,35.07
2019-05-07T11:13:12.872Z,36.46
2019-05-07T11:15:58.964Z,33.15
2019-05-07T11:18:46.044Z,36.14
2019-05-07T11:21:33.646Z,36.92
2019-05-07T11:24:19.795Z,35.65
2019-05-07T11:33:18.983Z,35.66
2019-05-07T11:36:06.810Z,36.54
2019-05-07T11:39:08.197Z,30.12
2019-05-07T11:48:07.378Z,36.14
2019-05-07T11:51:01.380Z,37.33
2019-05-07T11:54:01.955Z,37.29
2019-05-07T11:56:46.456Z,36.55
2019-05-07T11:59:33.669Z,36.53
2019-05-07T12:02:27.456Z,36.88
2019-05-07T12:05:14.110Z,37.26
2019-05-07T12:08:02.328Z,37.84
2019-05-07T12:10:48.256Z,38.69
2019-05-07T12:13:35.577Z,38.84
2019-05-07T12:16:22.652Z,39.26
2019-05-07T12:19:23.764Z,39.56
2019-05-07T12:22:12.121Z,38.73
2019-05-07T12:24:57.761Z,37.65
2019-05-07T12:27:44.959Z,37.39
2019-05-07T12:30:47.139Z,36.87
2019-05-07T12:33:39.883Z,37.88
2019-05-07T12:36:26.920Z,37.67
2019-05-07T12:39:13.785Z,37.93
2019-05-07T12:42:00.921Z,38.33
2019-05-07T12:44:47.588Z,38.96
2019-05-07T12:47:34.364Z,39.29
2019-05-07T12:50:24.647Z,37.17
2019-05-07T12:53:12.325Z,39.61
2019-05-07T12:55:58.888Z,39.11
2019-05-07T12:58:45.959Z,40.19
2019-05-07T13:01:32.916Z,39.72
2019-05-07T13:04:19.608Z,41.07
2019-05-07T13:07:09.269Z,40.06
2019-05-07T13:09:56.573Z,41.26
2019-05-07T13:12:44.033Z,41.22
2019-05-07T13:15:32.661Z,37.70
2019-05-07T13:21:24.672Z,42.39
2019-05-07T13:24:14.766Z,42.74
2019-05-07T13:26:59.197Z,43.05
2019-05-07T13:29:46.051Z,42.53
2019-05-07T13:32:33.279Z,43.09
2019-05-07T13:35:20.801Z,38.00
2019-05-07T13:38:08.046Z,39.69
2019-05-07T13:41:02.180Z,42.18
2019-05-07T13:44:05.897Z,42.07
2019-05-07T13:46:53.136Z,41.86
2019-05-07T13:49:39.919Z,39.53
2019-05-07T13:52:26.931Z,41.41
2019-05-07T13:55:13.601Z,40.99
2019-05-07T13:58:00.716Z,41.49
2019-05-07T14:01:04.891Z,40.95
2019-05-07T14:03:49.132Z,38.90
2019-05-07T14:06:39.103Z,39.94
2019-05-07T14:09:26.296Z,38.27
2019-05-07T14:12:13.591Z,37.61
2019-05-07T14:15:02.192Z,37.98
2019-05-07T14:17:48.058Z,33.04
2019-05-07T14:20:35.477Z,35.18
2019-05-07T14:23:22.743Z,36.06
2019-05-07T14:26:09.832Z,32.89
2019-05-07T14:28:56.497Z,33.38
2019-05-07T14:31:43.561Z,36.13
2019-05-07T14:37:42.547Z,36.36
2019-05-07T14:40:32.480Z,37.45
2019-05-07T14:43:18.928Z,38.12
2019-05-07T14:46:05.821Z,32.58
2019-05-07T14:48:52.853Z,34.60
2019-05-07T14:51:39.692Z,36.63
2019-05-07T14:54:27.185Z,36.75
2019-05-07T14:57:14.881Z,37.65
2019-05-07T15:00:03.291Z,37.50
2019-05-07T15:02:49.109Z,37.31
2019-05-07T15:05:36.678Z,36.86
2019-05-07T15:08:23.812Z,36.50
2019-05-07T15:11:11.016Z,37.58
2019-05-07T15:13:57.807Z,38.34
2019-05-07T15:16:44.951Z,38.21
2019-05-07T15:19:32.186Z,38.45
2019-05-07T15:25:42.882Z,34.36
2019-05-07T15:28:32.174Z,33.39
2019-05-07T15:31:16.878Z,36.79
2019-05-07T15:37:11.900Z,37.54
2019-05-07T15:39:56.714Z,38.12
2019-05-07T15:42:43.642Z,38.56
2019-05-07T15:45:30.467Z,34.86
2019-05-07T15:48:17.590Z,38.11
2019-05-07T15:51:04.552Z,38.97
2019-05-07T15:53:52.175Z,40.00
2019-05-07T15:56:38.269Z,40.22
2019-05-07T15:59:25.509Z,40.29
2019-05-07T16:02:19.461Z,40.51
2019-05-07T16:05:06.476Z,40.57
2019-05-07T16:07:53.715Z,40.81
2019-05-07T16:10:42.654Z,40.96
2019-05-07T16:13:27.598Z,41.61
2019-05-07T16:16:14.405Z,41.67
2019-05-07T16:19:01.985Z,42.11
2019-05-07T16:21:51.325Z,42.31
2019-05-07T16:24:38.979Z,42.75
2019-05-07T16:27:33.282Z,43.24
2019-05-07T16:33:26.289Z,43.87
2019-05-07T16:36:12.891Z,44.37
2019-05-07T16:38:59.880Z,44.76
2019-05-07T16:44:52.677Z,45.35
2019-05-07T16:47:39.396Z,45.34
2019-05-07T16:50:27.403Z,45.42
2019-05-07T16:59:27.432Z,45.91
2019-05-07T17:02:19.500Z,44.12
2019-05-07T17:08:12.532Z,47.05
2019-05-07T17:10:59.546Z,47.50
2019-05-07T17:13:47.772Z,47.65
2019-05-07T17:16:34.495Z,47.72
2019-05-07T17:19:22.634Z,48.19
2019-05-07T17:22:09.650Z,48.40
2019-05-07T17:28:02.950Z,49.62
2019-05-07T17:30:52.301Z,49.84
2019-05-07T17:33:36.751Z,50.28
2019-05-07T17:36:23.889Z,50.75
2019-05-07T17:39:12.212Z,49.52
2019-05-07T17:41:58.664Z,51.08
2019-05-07T17:44:45.856Z,50.83
2019-05-07T17:50:51.371Z,51.54
2019-05-07T17:53:38.443Z,51.59
2019-05-07T17:56:26.043Z,51.83
2019-05-07T17:59:12.748Z,52.21
2019-05-07T18:02:14.859Z,52.58
2019-05-07T18:05:02.850Z,51.66
2019-05-07T18:07:52.755Z,52.79
2019-05-07T18:10:42.284Z,52.95
2019-05-07T18:13:27.339Z,53.11
2019-05-07T18:16:23.687Z,53.08
2019-05-07T18:19:12.624Z,53.26
2019-05-07T18:21:58.416Z,53.53
2019-05-07T18:24:45.138Z,53.68
2019-05-07T18:27:32.954Z,53.81
2019-05-07T18:30:22.154Z,53.99
2019-05-07T18:33:12.054Z,54.08
2019-05-07T18:35:59.532Z,54.42
2019-05-07T18:38:46.616Z,53.85
2019-05-07T18:41:34.058Z,55.17
2019-05-07T18:44:22.390Z,56.04
2019-05-07T18:47:08.222Z,56.55
2019-05-07T18:49:55.315Z,56.64
2019-05-07T18:52:42.527Z,56.02
2019-05-07T18:55:29.746Z,57.08
2019-05-07T18:58:17.117Z,57.36
2019-05-07T19:04:16.171Z,57.82
2019-05-07T19:07:04.086Z,57.90
2019-05-07T19:09:51.667Z,58.34
2019-05-07T19:12:38.079Z,58.44
2019-05-07T19:15:26.020Z,58.33
2019-05-07T19:18:12.756Z,57.22
2019-05-07T19:21:00.706Z,57.19
2019-05-07T19:23:47.528Z,58.41
2019-05-07T19:26:35.947Z,59.09
2019-05-07T19:29:23.486Z,59.33
2019-05-07T19:32:12.120Z,59.15
2019-05-07T19:34:59.152Z,59.67
2019-05-07T19:37:46.375Z,59.66
2019-05-07T19:40:33.585Z,60.03
2019-05-07T19:43:21.815Z,59.95
2019-05-07T19:46:08.395Z,60.30
2019-05-07T19:48:57.356Z,60.53
2019-05-07T19:51:43.574Z,60.63
2019-05-07T19:54:32.355Z,60.59
2019-05-07T19:57:20.422Z,61.20
2019-05-07T20:00:07.355Z,60.99
2019-05-07T20:02:56.105Z,60.77
2019-05-07T20:08:49.746Z,61.31
2019-05-07T20:11:49.504Z,61.94
2019-05-07T20:14:36.253Z,62.29
2019-05-07T20:17:23.055Z,61.13
2019-05-07T20:20:12.384Z,61.53
2019-05-07T20:22:57.638Z,62.29
2019-05-07T20:25:45.493Z,62.24
2019-05-07T20:28:32.879Z,62.20
2019-05-07T20:31:22.694Z,62.32
2019-05-07T20:34:09.503Z,62.43
2019-05-07T20:36:56.799Z,62.71
2019-05-07T20:39:43.736Z,62.48
2019-05-07T20:42:32.395Z,62.24
2019-05-07T20:45:17.887Z,61.85
2019-05-07T20:48:05.227Z,61.65
2019-05-07T20:50:54.289Z,61.68
2019-05-07T20:57:08.616Z,62.50
2019-05-07T20:59:55.512Z,62.12
2019-05-07T21:02:47.925Z,62.73
2019-05-07T21:08:36.131Z,62.37
2019-05-07T21:11:23.348Z,62.66
2019-05-07T21:14:12.109Z,62.49
2019-05-07T21:16:57.467Z,62.46
2019-05-07T21:19:44.168Z,61.97
2019-05-07T21:22:32.076Z,62.89
2019-05-07T21:25:20.017Z,62.64
2019-05-07T21:28:07.036Z,62.93
2019-05-07T21:30:54.980Z,63.18
2019-05-07T21:33:42.919Z,62.82
2019-05-07T21:36:28.911Z,62.91
2019-05-07T21:42:22.869Z,62.91
2019-05-07T21:45:08.805Z,63.50
2019-05-07T21:47:56.087Z,63.45
2019-05-07T21:50:43.899Z,63.32
2019-05-07T21:53:43.057Z,63.82
2019-05-07T21:56:32.491Z,63.72
2019-05-07T21:59:21.888Z,63.87
2019-05-07T22:02:14.798Z,63.15
2019-05-07T22:05:02.589Z,63.80
2019-05-07T22:07:48.572Z,63.95
2019-05-07T22:10:35.845Z,64.60
2019-05-07T22:13:23.005Z,64.71
2019-05-07T22:16:09.790Z,63.90
2019-05-07T22:18:58.335Z,64.30
2019-05-07T22:21:46.147Z,64.03
2019-05-07T22:24:33.092Z,64.25
2019-05-07T22:27:22.063Z,64.59
2019-05-07T22:30:07.093Z,64.98
2019-05-07T22:33:02.452Z,64.12
2019-05-07T22:35:48.199Z,63.61
2019-05-07T22:38:36.393Z,64.78
2019-05-07T22:41:23.302Z,64.88
2019-05-07T22:44:12.038Z,64.66
2019-05-07T22:46:57.657Z,65.05
2019-05-07T22:52:52.487Z,65.52
2019-05-07T22:55:45.198Z,65.06
2019-05-07T22:58:32.636Z,65.21
2019-05-07T23:01:19.776Z,64.88
2019-05-07T23:04:08.066Z,65.05
2019-05-07T23:06:56.007Z,65.12
2019-05-07T23:09:52.215Z,65.12
2019-05-07T23:12:38.264Z,65.36
2019-05-07T23:15:26.714Z,65.12
2019-05-07T23:18:14.497Z,65.31
2019-05-07T23:21:01.385Z,65.27
2019-05-07T23:23:48.841Z,65.57
2019-05-07T23:26:47.394Z,64.85
2019-05-07T23:29:37.950Z,65.75
2019-05-07T23:32:26.379Z,66.12
2019-05-07T23:35:13.774Z,66.43
2019-05-07T23:38:02.497Z,66.04
2019-05-07T23:41:06.374Z,66.40
2019-05-07T23:44:12.777Z,66.38
2019-05-07T23:47:02.730Z,66.38
2019-05-07T23:49:47.844Z,66.82
2019-05-07T23:52:49.703Z,65.47
2019-05-07T23:55:36.801Z,67.30
2019-05-07T23:58:24.059Z,67.69
